Time;durP1;ratioP1;P1;durP2;ratioP2;P2;SDS_P1;SDS_P2;PMS_P1;PMS_P2;Temp;Humidity;BMP_temperature;BMP_pressure;BME280_temperature;BME280_humidity;BME280_pressure;Samples;Min_cycle;Max_cycle;Signal;HPM_P1;HPM_P2
2023/05/14 00:00:43;;;;;;;21.80;16.90;;;11.40;99.90;;;;;;5011805;28;20211;-66
2023/05/14 00:03:09;;;;;;;21.67;16.43;;;11.50;99.90;;;;;;5011699;28;20172;-66
2023/05/14 00:05:34;;;;;;;20.63;17.07;;;11.50;99.90;;;;;;5011981;28;20251;-66
2023/05/14 00:08:00;;;;;;;19.33;16.53;;;11.50;99.90;;;;;;5011957;28;20179;-66
2023/05/14 00:10:26;;;;;;;23.17;16.23;;;11.50;99.90;;;;;;5011849;28;20172;-66
2023/05/14 00:12:52;;;;;;;24.37;16.57;;;11.50;99.90;;;;;;5011603;28;20203;-66
2023/05/14 00:15:18;;;;;;;22.50;18.27;;;11.40;99.90;;;;;;5011734;28;20410;-66
2023/05/14 00:17:43;;;;;;;23.70;17.23;;;11.50;99.90;;;;;;5011667;28;20176;-66
2023/05/14 00:20:11;;;;;;;22.07;18.80;;;11.50;99.90;;;;;;5011427;28;20174;-66
2023/05/14 00:22:37;;;;;;;21.90;17.10;;;11.50;99.90;;;;;;5012133;28;20230;-66
2023/05/14 00:25:03;;;;;;;20.43;18.23;;;11.50;99.90;;;;;;5011442;28;20239;-67
2023/05/14 00:27:28;;;;;;;20.20;16.43;;;11.50;99.90;;;;;;5011631;28;20223;-66
2023/05/14 00:29:54;;;;;;;24.07;17.17;;;11.50;99.90;;;;;;5011668;28;20618;-66
2023/05/14 00:32:20;;;;;;;19.43;15.77;;;11.50;99.90;;;;;;5011641;28;20211;-66
2023/05/14 00:34:45;;;;;;;20.00;16.43;;;11.50;99.90;;;;;;5011559;28;20286;-66
2023/05/14 00:37:11;;;;;;;19.83;15.80;;;11.50;99.90;;;;;;5011445;28;20204;-66
2023/05/14 00:39:37;;;;;;;18.57;16.50;;;11.40;99.90;;;;;;5011834;28;20168;-66
2023/05/14 00:42:02;;;;;;;19.60;16.70;;;11.30;99.90;;;;;;5011527;28;20227;-66
2023/05/14 00:44:28;;;;;;;18.53;16.07;;;11.20;99.90;;;;;;5011660;28;20200;-67
2023/05/14 00:46:53;;;;;;;21.13;16.83;;;11.20;99.90;;;;;;5011557;28;20648;-66
2023/05/14 00:49:20;;;;;;;19.57;15.97;;;11.10;99.90;;;;;;5011372;28;20172;-66
2023/05/14 00:51:45;;;;;;;17.23;15.43;;;11.00;99.90;;;;;;5011393;28;20200;-66
2023/05/14 00:54:14;;;;;;;19.83;17.17;;;11.00;99.90;;;;;;5011548;28;20196;-66
2023/05/14 00:56:40;;;;;;;20.83;17.97;;;10.90;99.90;;;;;;5011690;28;20173;-66
2023/05/14 00:59:06;;;;;;;26.13;17.57;;;10.90;99.90;;;;;;5011290;28;20225;-65
2023/05/14 01:01:31;;;;;;;25.13;16.63;;;10.80;99.90;;;;;;5011173;28;20180;-66
2023/05/14 01:03:57;;;;;;;19.60;16.50;;;10.80;99.90;;;;;;5011198;28;20291;-66
2023/05/14 01:06:53;;;;;;;24.87;17.57;;;10.80;99.90;;;;;;5011698;28;20238;-66
2023/05/14 01:09:49;;;;;;;21.80;17.60;;;10.70;99.90;;;;;;4991945;28;20165;-66
2023/05/14 01:12:33;;;;;;;22.13;18.03;;;10.70;99.90;;;;;;4986214;28;20247;-66
2023/05/14 01:15:08;;;;;;;21.73;17.60;;;10.70;99.90;;;;;;5015229;28;20203;-66
2023/05/14 01:17:41;;;;;;;22.90;18.77;;;10.70;99.90;;;;;;5015352;28;20179;-66
2023/05/14 01:20:08;;;;;;;22.67;18.43;;;10.60;99.90;;;;;;5015030;28;20262;-67
2023/05/14 01:22:34;;;;;;;22.37;17.70;;;10.60;99.90;;;;;;5014936;28;20187;-66
2023/05/14 01:24:59;;;;;;;19.47;17.40;;;10.60;99.90;;;;;;5015212;28;20188;-66
2023/05/14 01:27:34;;;;;;;23.70;17.50;;;10.60;99.90;;;;;;5014844;28;20188;-66
2023/05/14 01:30:07;;;;;;;23.37;18.53;;;10.50;99.90;;;;;;5014963;28;20634;-66
2023/05/14 01:32:33;;;;;;;21.13;17.63;;;10.50;99.90;;;;;;5014830;28;20223;-66
2023/05/14 01:35:00;;;;;;;21.43;17.80;;;10.40;99.90;;;;;;5014977;28;20541;-66
2023/05/14 01:37:26;;;;;;;21.93;18.00;;;10.40;99.90;;;;;;5014916;28;20164;-66
2023/05/14 01:39:54;;;;;;;24.07;18.83;;;10.40;99.90;;;;;;5012946;28;20657;-66
2023/05/14 01:42:20;;;;;;;22.17;17.67;;;10.30;99.90;;;;;;5014761;28;20646;-66
2023/05/14 01:44:46;;;;;;;22.10;17.87;;;10.30;99.90;;;;;;5014544;28;20655;-66
2023/05/14 01:47:12;;;;;;;27.60;20.50;;;10.30;99.90;;;;;;4994975;28;20191;-66
2023/05/14 01:49:37;;;;;;;27.17;19.40;;;10.30;99.90;;;;;;4994975;28;20234;-66
2023/05/14 01:52:03;;;;;;;25.90;19.43;;;10.30;99.90;;;;;;5012721;28;20200;-66
2023/05/14 01:54:29;;;;;;;26.63;20.27;;;10.30;99.90;;;;;;5014643;28;20272;-66
2023/05/14 01:56:55;;;;;;;24.97;18.87;;;10.30;99.90;;;;;;5014346;28;20223;-66
2023/05/14 01:59:20;;;;;;;25.50;19.70;;;10.20;99.90;;;;;;5014324;28;20183;-66
2023/05/14 02:01:46;;;;;;;30.80;20.80;;;10.20;99.90;;;;;;5014145;28;20703;-66
2023/05/14 02:04:11;;;;;;;28.37;19.77;;;10.20;99.90;;;;;;5014980;28;20693;-66
2023/05/14 02:06:37;;;;;;;25.50;19.90;;;10.20;99.90;;;;;;5014089;28;20195;-67
2023/05/14 02:09:04;;;;;;;25.57;19.73;;;10.20;99.90;;;;;;5014398;28;20262;-67
2023/05/14 02:11:29;;;;;;;27.10;21.30;;;10.10;99.90;;;;;;5013478;28;20218;-66
2023/05/14 02:13:55;;;;;;;31.17;20.50;;;10.10;99.90;;;;;;5013896;28;20200;-67
2023/05/14 02:16:20;;;;;;;30.40;21.23;;;10.10;99.90;;;;;;5013904;28;20180;-66
2023/05/14 02:18:46;;;;;;;27.23;20.70;;;10.10;99.90;;;;;;5014089;28;20176;-67
2023/05/14 02:21:11;;;;;;;27.33;21.23;;;10.00;99.90;;;;;;5012869;28;20262;-66
2023/05/14 02:23:37;;;;;;;26.90;21.23;;;10.00;99.90;;;;;;5013066;28;20196;-66
2023/05/14 02:26:02;;;;;;;34.73;22.30;;;10.00;99.90;;;;;;5013899;28;20184;-66
2023/05/14 02:28:28;;;;;;;27.57;21.53;;;10.00;99.90;;;;;;5013735;28;20267;-66
2023/05/14 02:31:00;;;;;;;29.80;21.77;;;10.00;99.90;;;;;;5013983;28;20630;-66
2023/05/14 02:33:26;;;;;;;27.53;22.63;;;10.00;99.90;;;;;;5013473;28;20208;-66
2023/05/14 02:35:52;;;;;;;29.77;21.03;;;10.00;99.90;;;;;;5013755;28;20203;-66
2023/05/14 02:38:18;;;;;;;33.73;21.97;;;10.00;99.90;;;;;;5013447;28;20219;-66
2023/05/14 02:40:44;;;;;;;31.13;22.73;;;9.90;99.90;;;;;;5013578;28;20168;-66
2023/05/14 02:43:09;;;;;;;36.37;23.03;;;9.90;99.90;;;;;;5013311;28;20263;-66
2023/05/14 02:45:35;;;;;;;32.40;22.77;;;9.90;99.90;;;;;;5013470;28;20180;-66
2023/05/14 02:48:01;;;;;;;34.83;24.03;;;9.90;99.90;;;;;;5013221;28;20594;-67
2023/05/14 02:50:26;;;;;;;30.93;22.10;;;9.90;99.90;;;;;;5013347;28;20226;-66
2023/05/14 02:52:52;;;;;;;37.07;22.93;;;9.90;99.90;;;;;;5011656;28;20626;-65
2023/05/14 02:55:17;;;;;;;34.03;22.70;;;9.90;99.90;;;;;;5012472;28;20627;-65
2023/05/14 02:57:43;;;;;;;35.70;23.50;;;9.80;99.90;;;;;;5012954;28;20176;-65
2023/05/14 03:00:10;;;;;;;30.37;22.43;;;9.70;99.90;;;;;;5013185;28;20172;-65
2023/05/14 03:02:36;;;;;;;29.70;22.43;;;9.70;99.90;;;;;;5013240;28;20220;-66
2023/05/14 03:05:02;;;;;;;29.20;20.97;;;9.70;99.90;;;;;;5013191;28;20764;-66
2023/05/14 03:07:27;;;;;;;30.03;22.23;;;9.60;99.90;;;;;;5012827;28;20184;-66
2023/05/14 03:09:53;;;;;;;32.53;23.07;;;9.60;99.90;;;;;;5012899;28;20187;-66
2023/05/14 03:12:19;;;;;;;38.07;25.67;;;9.50;99.90;;;;;;5012978;28;20204;-66
2023/05/14 03:14:45;;;;;;;33.67;24.43;;;9.50;99.90;;;;;;5012813;28;20739;-66
2023/05/14 03:17:11;;;;;;;37.60;25.80;;;9.50;99.90;;;;;;5012832;28;20223;-66
2023/05/14 03:19:36;;;;;;;37.50;23.90;;;9.50;99.90;;;;;;5012453;28;20188;-66
2023/05/14 03:22:02;;;;;;;34.37;23.80;;;9.50;99.90;;;;;;5011286;28;20684;-66
2023/05/14 03:24:28;;;;;;;36.43;24.20;;;9.50;99.90;;;;;;5012615;28;20219;-66
2023/05/14 03:26:53;;;;;;;32.10;22.40;;;9.40;99.90;;;;;;5012595;28;20192;-66
2023/05/14 03:29:19;;;;;;;37.37;23.63;;;9.40;99.90;;;;;;5012556;28;20630;-66
2023/05/14 03:31:44;;;;;;;33.43;22.50;;;9.40;99.90;;;;;;5012522;28;20628;-66
2023/05/14 03:34:10;;;;;;;36.10;23.27;;;9.40;99.90;;;;;;5012180;28;20211;-66
2023/05/14 03:36:37;;;;;;;28.97;21.90;;;9.30;99.90;;;;;;5012707;28;20172;-66
2023/05/14 03:39:05;;;;;;;31.53;21.57;;;9.30;99.90;;;;;;5012485;28;20586;-66
2023/05/14 03:41:31;;;;;;;32.20;22.40;;;9.30;99.90;;;;;;5012383;28;20234;-66
2023/05/14 03:43:57;;;;;;;43.27;24.40;;;9.20;99.90;;;;;;5012123;28;20208;-66
2023/05/14 03:46:22;;;;;;;30.03;23.23;;;9.20;99.90;;;;;;5012484;28;20589;-66
2023/05/14 03:48:48;;;;;;;32.33;23.33;;;9.10;99.90;;;;;;5012231;28;20186;-66
2023/05/14 03:51:14;;;;;;;36.30;23.93;;;9.10;99.90;;;;;;5012141;28;20640;-66
2023/05/14 03:53:40;;;;;;;32.37;23.53;;;9.20;99.90;;;;;;5012279;28;20192;-66
2023/05/14 03:56:05;;;;;;;39.77;25.77;;;9.10;99.90;;;;;;5012206;28;20251;-66
2023/05/14 03:58:31;;;;;;;40.70;26.17;;;9.10;99.90;;;;;;5011942;28;20180;-66
2023/05/14 04:00:57;;;;;;;36.80;25.00;;;9.10;99.90;;;;;;5011972;28;20179;-66
2023/05/14 04:03:22;;;;;;;43.00;26.53;;;9.10;99.90;;;;;;5012179;28;20212;-66
2023/05/14 04:05:49;;;;;;;40.80;26.57;;;9.10;99.90;;;;;;5011842;28;20550;-66
2023/05/14 04:08:15;;;;;;;41.57;27.37;;;9.20;99.90;;;;;;5012203;28;20191;-65
2023/05/14 04:10:41;;;;;;;43.77;27.43;;;9.20;99.90;;;;;;5011388;28;20169;-66
2023/05/14 04:13:07;;;;;;;50.00;29.27;;;9.20;99.90;;;;;;5011952;28;20235;-66
2023/05/14 04:15:34;;;;;;;44.63;28.83;;;9.30;99.90;;;;;;5011592;28;20265;-66
2023/05/14 04:18:00;;;;;;;44.27;27.80;;;9.30;99.90;;;;;;5012084;28;20190;-66
2023/05/14 04:20:26;;;;;;;48.83;28.70;;;9.40;99.90;;;;;;5011822;28;20541;-66
2023/05/14 04:22:53;;;;;;;44.17;28.07;;;9.40;99.90;;;;;;5011534;28;20601;-66
2023/05/14 04:25:19;;;;;;;45.23;29.43;;;9.50;99.90;;;;;;5011740;28;20239;-66
2023/05/14 04:27:44;;;;;;;49.13;30.60;;;9.60;99.90;;;;;;5011414;28;20219;-66
2023/05/14 04:30:10;;;;;;;47.00;30.20;;;9.60;99.90;;;;;;5011518;28;20990;-66
2023/05/14 04:32:36;;;;;;;43.20;28.23;;;9.70;99.90;;;;;;5010371;28;20211;-66
2023/05/14 04:35:03;;;;;;;42.30;27.43;;;9.70;99.90;;;;;;5011438;28;20212;-66
2023/05/14 04:37:29;;;;;;;38.53;25.47;;;9.80;99.90;;;;;;5011854;28;20704;-66
2023/05/14 04:39:55;;;;;;;37.70;23.90;;;9.90;99.90;;;;;;5011422;28;20548;-66
2023/05/14 04:42:21;;;;;;;40.83;25.13;;;9.90;99.90;;;;;;5011269;28;20683;-66
2023/05/14 04:44:47;;;;;;;37.00;24.03;;;10.00;99.90;;;;;;5011069;28;20294;-66
2023/05/14 04:47:13;;;;;;;37.77;23.77;;;10.00;99.90;;;;;;5011046;28;20182;-66
2023/05/14 04:49:38;;;;;;;39.43;24.27;;;10.00;99.90;;;;;;5010865;28;20202;-66
2023/05/14 04:52:05;;;;;;;35.30;24.27;;;10.10;99.90;;;;;;5011618;28;20227;-66
2023/05/14 04:54:30;;;;;;;36.87;24.33;;;10.10;99.90;;;;;;5011090;28;20235;-66
2023/05/14 04:56:56;;;;;;;31.27;24.40;;;10.20;99.90;;;;;;5011488;28;20204;-66
2023/05/14 04:59:21;;;;;;;34.07;23.70;;;10.30;99.90;;;;;;5010923;28;20234;-66
2023/05/14 05:01:47;;;;;;;34.23;23.27;;;10.40;99.90;;;;;;5011433;28;20184;-66
2023/05/14 05:04:13;;;;;;;30.60;23.33;;;10.50;99.90;;;;;;5010897;28;20371;-66
2023/05/14 05:06:39;;;;;;;33.47;24.53;;;10.60;99.90;;;;;;5011769;28;20534;-66
2023/05/14 05:09:04;;;;;;;35.77;24.07;;;10.70;99.90;;;;;;5011459;28;20172;-66
2023/05/14 05:11:30;;;;;;;37.37;24.90;;;10.70;99.90;;;;;;5010807;28;20203;-66
2023/05/14 05:13:55;;;;;;;33.57;25.60;;;10.80;99.90;;;;;;5011252;28;20551;-66
2023/05/14 05:16:21;;;;;;;33.87;24.23;;;10.90;99.90;;;;;;5011142;28;20180;-66
2023/05/14 05:18:47;;;;;;;38.67;25.47;;;11.00;99.90;;;;;;5011524;28;20176;-66
2023/05/14 05:21:12;;;;;;;34.73;24.47;;;11.10;99.90;;;;;;5010029;28;20263;-66
2023/05/14 05:23:38;;;;;;;36.40;25.63;;;11.20;99.90;;;;;;5010603;28;20475;-66
2023/05/14 05:26:04;;;;;;;40.60;25.53;;;11.30;99.90;;;;;;5010886;28;20184;-66
2023/05/14 05:28:29;;;;;;;43.73;27.13;;;11.40;99.90;;;;;;5011605;28;20267;-66
2023/05/14 05:30:55;;;;;;;39.03;26.67;;;11.50;99.90;;;;;;5010527;28;20192;-66
2023/05/14 05:33:20;;;;;;;38.27;25.53;;;11.60;99.90;;;;;;5011170;28;20580;-66
2023/05/14 05:35:47;;;;;;;39.17;27.47;;;11.80;99.90;;;;;;5010707;28;20212;-66
2023/05/14 05:38:14;;;;;;;42.87;29.40;;;12.00;99.90;;;;;;5011256;28;20182;-66
2023/05/14 05:40:39;;;;;;;37.70;27.87;;;12.10;99.90;;;;;;5010302;28;20169;-66
2023/05/14 05:43:05;;;;;;;37.10;27.00;;;12.30;99.90;;;;;;5009701;28;20196;-66
2023/05/14 05:45:31;;;;;;;37.60;28.37;;;12.50;99.90;;;;;;5010676;28;20188;-66
2023/05/14 05:47:56;;;;;;;39.87;28.53;;;12.60;99.90;;;;;;5011252;28;20195;-66
2023/05/14 05:50:22;;;;;;;35.47;28.23;;;12.80;99.90;;;;;;5009236;28;20669;-66
2023/05/14 05:52:48;;;;;;;32.93;25.80;;;12.90;99.90;;;;;;5011136;28;20732;-66
2023/05/14 05:55:13;;;;;;;34.13;26.33;;;12.80;99.90;;;;;;5010933;28;20275;-66
2023/05/14 05:57:39;;;;;;;30.80;23.30;;;12.80;99.90;;;;;;5011573;28;20245;-66
2023/05/14 06:00:14;;;;;;;34.70;24.30;;;12.90;99.90;;;;;;5014019;28;20183;-66
2023/05/14 06:02:40;;;;;;;30.27;22.77;;;13.10;99.90;;;;;;5014330;28;20214;-66
2023/05/14 06:05:07;;;;;;;29.63;22.77;;;13.30;99.90;;;;;;5013968;28;20345;-66
2023/05/14 06:07:33;;;;;;;32.00;23.10;;;13.60;99.90;;;;;;4998547;28;20188;-65
2023/05/14 06:09:58;;;;;;;30.53;23.47;;;14.00;99.90;;;;;;5007429;28;20196;-65
2023/05/14 06:12:24;;;;;;;22.77;18.37;;;14.40;99.90;;;;;;5014418;28;20204;-65
2023/05/14 06:14:50;;;;;;;19.47;17.50;;;14.80;99.90;;;;;;5013560;28;20207;-65
2023/05/14 06:17:16;;;;;;;20.00;15.57;;;15.10;99.90;;;;;;5013897;28;20681;-66
2023/05/14 06:19:41;;;;;;;18.80;16.50;;;15.50;99.90;;;;;;5013258;28;20195;-65
2023/05/14 06:22:07;;;;;;;19.20;14.20;;;15.90;99.90;;;;;;5013864;28;20557;-65
2023/05/14 06:24:33;;;;;;;17.63;13.27;;;16.40;99.90;;;;;;5013637;28;20212;-66
2023/05/14 06:26:58;;;;;;;15.00;13.50;;;16.90;99.90;;;;;;5013835;28;20187;-66
2023/05/14 06:29:24;;;;;;;14.80;13.30;;;17.30;99.90;;;;;;5012009;28;20219;-66
2023/05/14 06:31:50;;;;;;;13.83;12.30;;;17.50;99.90;;;;;;5011987;28;20204;-65
2023/05/14 06:34:15;;;;;;;15.07;13.57;;;17.80;99.90;;;;;;5013723;28;20203;-66
2023/05/14 06:36:41;;;;;;;14.63;13.23;;;18.10;99.90;;;;;;5013287;28;20655;-66
2023/05/14 06:39:06;;;;;;;15.82;13.68;;;18.60;99.90;;;;;;5013220;28;20184;-65
2023/05/14 06:41:32;;;;;;;17.25;13.45;;;19.10;99.90;;;;;;5012916;28;20262;-66
2023/05/14 06:43:57;;;;;;;14.25;12.02;;;19.50;99.90;;;;;;5011899;28;20233;-66
2023/05/14 06:46:23;;;;;;;13.95;11.65;;;20.00;99.90;;;;;;5012995;28;20230;-66
2023/05/14 06:48:48;;;;;;;12.15;10.95;;;20.30;99.90;;;;;;5013379;28;20203;-66
2023/05/14 06:51:14;;;;;;;13.38;12.05;;;20.70;99.90;;;;;;5012637;28;20214;-66
2023/05/14 06:53:40;;;;;;;13.63;11.52;;;21.10;99.90;;;;;;5012995;28;20199;-66
2023/05/14 06:56:06;;;;;;;12.55;11.23;;;21.60;99.90;;;;;;5012809;28;20203;-66
2023/05/14 06:58:32;;;;;;;13.20;11.90;;;21.70;99.90;;;;;;5013322;28;20183;-66
2023/05/14 07:00:58;;;;;;;14.90;12.70;;;21.90;99.90;;;;;;5011233;28;20267;-66
2023/05/14 07:03:24;;;;;;;14.52;13.10;;;22.20;99.90;;;;;;5013125;28;20200;-66
2023/05/14 07:05:50;;;;;;;12.38;11.15;;;22.50;99.90;;;;;;5012754;28;20176;-66
2023/05/14 07:08:16;;;;;;;13.32;10.98;;;22.60;99.90;;;;;;5013199;28;20222;-66
2023/05/14 07:10:41;;;;;;;13.05;11.60;;;22.60;99.90;;;;;;5011709;28;20552;-66
2023/05/14 07:13:07;;;;;;;24.27;12.00;;;22.80;99.90;;;;;;5012889;28;20607;-66
2023/05/14 07:15:33;;;;;;;14.20;10.85;;;22.40;99.90;;;;;;5012546;28;20207;-66
2023/05/14 07:17:58;;;;;;;12.25;10.95;;;22.60;99.90;;;;;;5012830;28;20176;-66
2023/05/14 07:20:24;;;;;;;12.75;10.65;;;23.00;99.90;;;;;;5011657;28;20183;-66
2023/05/14 07:22:51;;;;;;;15.82;10.98;;;23.20;99.90;;;;;;5012615;28;20192;-67
2023/05/14 07:25:17;;;;;;;14.18;10.98;;;23.50;99.90;;;;;;5011251;28;20206;-67
2023/05/14 07:27:43;;;;;;;14.43;12.32;;;23.70;99.90;;;;;;5011994;28;20196;-66
2023/05/14 07:30:09;;;;;;;13.38;11.50;;;23.60;99.90;;;;;;5012514;28;20230;-67
2023/05/14 07:32:35;;;;;;;11.32;10.23;;;23.00;99.90;;;;;;5012457;28;20208;-66
2023/05/14 07:35:00;;;;;;;12.65;11.45;;;23.00;99.90;;;;;;5012507;28;20279;-66
2023/05/14 07:37:26;;;;;;;9.93;8.93;;;23.10;99.90;;;;;;5012566;28;20234;-67
2023/05/14 07:39:52;;;;;;;12.13;10.07;;;23.40;99.90;;;;;;5012058;28;20183;-66
2023/05/14 07:42:18;;;;;;;11.57;9.70;;;23.60;99.90;;;;;;5012528;28;20176;-66
2023/05/14 07:44:43;;;;;;;10.65;9.60;;;23.40;99.90;;;;;;5010293;28;20230;-67
2023/05/14 07:47:09;;;;;;;12.75;9.35;;;23.30;99.90;;;;;;5012617;28;20830;-67
2023/05/14 07:49:35;;;;;;;10.75;9.32;;;23.60;99.90;;;;;;5011731;28;20271;-67
2023/05/14 07:52:01;;;;;;;10.38;9.38;;;23.80;99.90;;;;;;5012061;28;20232;-67
2023/05/14 07:54:26;;;;;;;9.90;8.98;;;24.00;99.90;;;;;;5012007;28;20246;-66
2023/05/14 07:56:52;;;;;;;11.18;9.20;;;24.20;99.90;;;;;;5011945;28;20673;-66
2023/05/14 07:59:17;;;;;;;9.20;8.02;;;24.50;99.90;;;;;;5012133;28;20260;-66
2023/05/14 08:01:43;;;;;;;8.70;7.72;;;24.80;99.90;;;;;;5011456;28;20180;-66
2023/05/14 08:04:10;;;;;;;9.45;8.45;;;25.10;99.90;;;;;;5012674;28;20211;-67
2023/05/14 08:06:36;;;;;;;9.95;8.50;;;25.40;99.90;;;;;;5011536;28;20180;-67
2023/05/14 08:09:04;;;;;;;9.55;8.55;;;25.60;99.90;;;;;;5011822;28;20711;-67
2023/05/14 08:11:30;;;;;;;12.10;8.18;;;26.00;99.90;;;;;;5010734;28;20567;-67
2023/05/14 08:13:56;;;;;;;8.80;8.00;;;26.40;99.90;;;;;;4992201;28;20199;-67
2023/05/14 08:16:22;;;;;;;10.65;7.18;;;26.50;99.90;;;;;;4997179;28;20219;-67
2023/05/14 08:18:48;;;;;;;9.10;8.23;;;26.80;99.90;;;;;;5011698;28;20164;-67
2023/05/14 08:21:13;;;;;;;11.23;7.85;;;27.10;99.90;;;;;;5010564;28;20252;-67
2023/05/14 08:23:39;;;;;;;7.15;6.57;;;26.80;99.90;;;;;;5010964;28;20207;-67
2023/05/14 08:26:05;;;;;;;11.15;7.93;;;26.60;99.90;;;;;;5011582;28;20188;-67
2023/05/14 08:28:30;;;;;;;8.68;7.93;;;26.70;99.90;;;;;;5011120;28;20553;-67
2023/05/14 08:30:56;;;;;;;8.80;8.10;;;26.70;99.90;;;;;;5011375;28;20184;-67
2023/05/14 08:33:22;;;;;;;9.52;8.73;;;27.00;99.90;;;;;;5011745;28;20267;-67
2023/05/14 08:35:51;;;;;;;8.20;7.50;;;27.20;99.90;;;;;;5011469;28;20574;-67
2023/05/14 08:38:17;;;;;;;7.93;7.22;;;27.00;99.90;;;;;;5011785;28;20195;-67
2023/05/14 08:40:55;;;;;;;6.80;6.30;;;27.00;99.90;;;;;;5011573;28;20275;-67
2023/05/14 08:43:25;;;;;;;7.13;6.53;;;27.10;99.90;;;;;;5011746;28;20200;-66
2023/05/14 08:45:56;;;;;;;6.80;6.20;;;27.00;99.90;;;;;;5011441;28;20210;-67
2023/05/14 08:48:23;;;;;;;6.50;5.82;;;26.80;99.90;;;;;;5011820;28;20234;-67
2023/05/14 08:50:48;;;;;;;6.75;5.97;;;27.20;99.90;;;;;;5011332;28;20180;-67
2023/05/14 08:53:14;;;;;;;7.95;7.00;;;27.20;99.90;;;;;;5011476;28;20211;-66
2023/05/14 08:55:40;;;;;;;6.72;6.13;;;27.50;99.90;;;;;;5011081;28;20200;-67
2023/05/14 08:58:05;;;;;;;6.13;5.53;;;27.80;99.90;;;;;;5011601;28;20211;-66
2023/05/14 09:00:31;;;;;;;9.40;7.05;;;28.20;99.90;;;;;;5010961;28;20196;-66
2023/05/14 09:02:58;;;;;;;7.07;6.10;;;28.70;99.90;;;;;;5011434;28;20168;-67
2023/05/14 09:05:24;;;;;;;9.48;6.72;;;28.50;99.90;;;;;;5011350;28;20188;-67
2023/05/14 09:07:50;;;;;;;11.05;8.43;;;28.80;99.90;;;;;;5011488;28;20461;-67
2023/05/14 09:10:16;;;;;;;8.40;7.60;;;28.90;99.90;;;;;;5010935;28;20215;-67
2023/05/14 09:12:42;;;;;;;7.80;7.10;;;28.80;99.90;;;;;;5011334;28;20200;-67
2023/05/14 09:15:07;;;;;;;9.75;8.75;;;28.80;99.90;;;;;;5011021;28;20192;-67
2023/05/14 09:17:34;;;;;;;7.00;6.40;;;28.70;99.90;;;;;;5011220;28;20161;-66
2023/05/14 09:20:00;;;;;;;10.23;7.75;;;29.10;99.90;;;;;;5010683;28;20185;-66
2023/05/14 09:22:30;;;;;;;8.27;7.50;;;29.50;99.90;;;;;;5011226;28;20253;-67
2023/05/14 09:25:08;;;;;;;9.45;7.40;;;29.00;99.90;;;;;;5011271;28;20204;-67
2023/05/14 09:27:35;;;;;;;7.72;6.72;;;28.60;99.90;;;;;;5010976;28;20184;-65
2023/05/14 09:30:12;;;;;;;8.73;7.65;;;28.30;99.90;;;;;;5010969;28;20234;-66
2023/05/14 09:32:39;;;;;;;7.30;6.60;;;28.10;99.90;;;;;;5011621;28;20208;-66
2023/05/14 09:35:21;;;;;;;8.70;7.72;;;28.10;99.90;;;;;;5014761;28;20192;-66
2023/05/14 09:37:52;;;;;;;7.18;6.53;;;27.90;99.90;;;;;;5014397;28;20268;-66
2023/05/14 09:40:20;;;;;;;8.02;7.30;;;28.20;99.90;;;;;;5014683;28;20178;-66
2023/05/14 09:42:47;;;;;;;7.07;6.43;;;28.40;99.90;;;;;;5014498;28;20180;-66
2023/05/14 09:45:13;;;;;;;7.00;6.40;;;28.60;99.90;;;;;;5015028;28;20673;-66
2023/05/14 09:47:39;;;;;;;7.20;6.25;;;28.90;99.90;;;;;;5014324;28;20188;-66
2023/05/14 09:50:05;;;;;;;8.57;7.32;;;29.20;99.90;;;;;;5014606;28;20558;-66
2023/05/14 09:52:31;;;;;;;6.15;5.55;;;29.10;99.90;;;;;;5014876;28;20204;-66
2023/05/14 09:54:58;;;;;;;6.55;5.95;;;29.10;99.90;;;;;;5014500;28;20291;-66
2023/05/14 09:57:25;;;;;;;7.43;6.72;;;29.50;99.90;;;;;;5014359;28;20187;-66
2023/05/14 09:59:51;;;;;;;6.93;6.10;;;29.60;99.90;;;;;;5013124;28;20173;-66
2023/05/14 10:02:32;;;;;;;7.88;7.28;;;29.70;99.90;;;;;;5014502;28;20540;-66
2023/05/14 10:05:01;;;;;;;6.80;6.20;;;30.00;99.90;;;;;;5013751;28;20215;-66
2023/05/14 10:07:32;;;;;;;7.63;6.93;;;30.30;99.90;;;;;;5014509;28;20179;-66
2023/05/14 10:10:01;;;;;;;7.28;6.50;;;30.20;99.90;;;;;;5013670;28;20233;-66
2023/05/14 10:12:35;;;;;;;7.68;6.20;;;30.20;99.90;;;;;;5014089;28;20269;-66
2023/05/14 10:15:06;;;;;;;7.20;6.40;;;29.60;99.90;;;;;;5013876;28;20211;-66
2023/05/14 10:17:36;;;;;;;9.32;6.28;;;29.50;99.90;;;;;;5014355;28;20176;-66
2023/05/14 10:20:04;;;;;;;7.47;6.78;;;29.70;99.90;;;;;;5013493;28;20535;-66
2023/05/14 10:22:33;;;;;;;9.10;8.25;;;29.60;99.90;;;;;;5013965;28;20188;-66
2023/05/14 10:25:00;;;;;;;8.80;7.75;;;29.20;99.90;;;;;;5013767;28;20697;-66
2023/05/14 10:27:26;;;;;;;9.23;8.43;;;29.10;99.90;;;;;;5014305;28;20180;-66
2023/05/14 10:29:53;;;;;;;8.85;7.20;;;28.80;99.90;;;;;;5013473;28;20177;-66
2023/05/14 10:32:25;;;;;;;7.38;6.68;;;28.80;99.90;;;;;;5013611;28;20242;-66
2023/05/14 10:34:53;;;;;;;8.27;7.18;;;29.10;99.90;;;;;;5013789;28;20227;-65
2023/05/14 10:37:25;;;;;;;7.25;6.57;;;29.30;99.90;;;;;;5013526;28;20580;-65
2023/05/14 10:39:57;;;;;;;6.97;5.78;;;29.20;99.90;;;;;;5013218;28;20179;-68
2023/05/14 10:42:34;;;;;;;6.40;5.80;;;29.40;99.90;;;;;;5013598;28;20185;-68
2023/05/14 10:45:06;;;;;;;9.55;5.93;;;29.70;99.90;;;;;;5012480;28;20222;-68
2023/05/14 10:47:32;;;;;;;6.00;5.40;;;30.00;99.90;;;;;;5013605;28;20251;-65
2023/05/14 10:50:00;;;;;;;6.50;5.90;;;30.40;99.90;;;;;;5012308;28;20192;-66
2023/05/14 10:52:26;;;;;;;7.50;6.82;;;30.00;99.90;;;;;;5012415;28;20208;-66
2023/05/14 10:54:57;;;;;;;7.80;7.00;;;29.50;99.90;;;;;;5011798;28;20196;-66
2023/05/14 10:57:26;;;;;;;9.43;8.70;;;28.80;99.90;;;;;;5013501;28;20168;-66
2023/05/14 10:59:53;;;;;;;9.45;6.80;;;27.90;99.90;;;;;;5013043;28;20536;-66
2023/05/14 11:02:31;;;;;;;9.20;8.30;;;27.20;99.90;;;;;;5013426;28;20180;-66
2023/05/14 11:05:02;;;;;;;8.73;8.13;;;26.60;99.90;;;;;;5013330;28;20207;-66
2023/05/14 11:07:34;;;;;;;7.97;7.22;;;26.20;99.90;;;;;;5012997;28;20538;-66
2023/05/14 11:10:05;;;;;;;8.20;7.47;;;25.50;99.90;;;;;;5012962;28;20593;-66
2023/05/14 11:12:35;;;;;;;8.52;7.82;;;25.40;99.90;;;;;;5013877;28;20196;-66
2023/05/14 11:15:03;;;;;;;10.20;7.63;;;25.70;99.90;;;;;;5013437;28;20200;-66
2023/05/14 11:17:30;;;;;;;10.13;6.32;;;25.90;99.90;;;;;;5013112;28;20172;-66
2023/05/14 11:19:56;;;;;;;7.90;7.30;;;26.40;99.90;;;;;;5012936;28;20184;-66
2023/05/14 11:22:22;;;;;;;9.23;7.72;;;26.90;99.90;;;;;;5001962;28;20180;-66
2023/05/14 11:24:48;;;;;;;7.28;6.60;;;27.20;99.90;;;;;;5005029;28;20207;-66
2023/05/14 11:27:14;;;;;;;8.13;7.43;;;27.70;99.90;;;;;;5012824;28;20183;-66
2023/05/14 11:29:49;;;;;;;9.93;8.10;;;27.90;99.90;;;;;;5012314;28;20191;-68
2023/05/14 11:32:16;;;;;;;8.48;7.07;;;28.30;99.90;;;;;;5012569;28;20226;-66
2023/05/14 11:34:43;;;;;;;8.48;7.57;;;28.90;99.90;;;;;;5010581;28;20222;-66
2023/05/14 11:37:10;;;;;;;8.85;7.05;;;28.80;99.90;;;;;;5012652;28;20172;-66
2023/05/14 11:39:38;;;;;;;10.27;7.43;;;29.00;99.90;;;;;;5012141;28;20231;-66
2023/05/14 11:42:08;;;;;;;7.13;6.53;;;28.80;99.90;;;;;;5012590;28;20180;-66
2023/05/14 11:44:34;;;;;;;6.90;6.20;;;28.60;99.90;;;;;;5011707;28;20212;-66
2023/05/14 11:47:03;;;;;;;8.85;7.13;;;28.50;99.90;;;;;;5012051;28;20180;-66
2023/05/14 11:49:29;;;;;;;8.35;6.35;;;28.40;99.90;;;;;;5012361;28;20176;-66
2023/05/14 11:51:59;;;;;;;8.10;7.30;;;28.90;99.90;;;;;;5012917;28;20274;-67
2023/05/14 11:54:29;;;;;;;7.72;6.88;;;29.40;99.90;;;;;;5012268;28;20649;-66
2023/05/14 11:56:56;;;;;;;6.07;5.57;;;29.80;99.90;;;;;;5011927;28;20184;-66
2023/05/14 11:59:26;;;;;;;6.32;5.93;;;29.90;99.90;;;;;;5012294;28;20263;-66
2023/05/14 12:01:53;;;;;;;7.20;6.60;;;29.00;99.90;;;;;;5012042;28;20215;-67
2023/05/14 12:04:21;;;;;;;7.57;6.88;;;28.40;99.90;;;;;;5012486;28;20781;-67
2023/05/14 12:06:51;;;;;;;6.53;5.53;;;27.70;99.90;;;;;;5012846;28;20641;-66
2023/05/14 12:09:18;;;;;;;7.45;6.85;;;27.00;99.90;;;;;;5011057;28;20172;-66
2023/05/14 12:11:45;;;;;;;6.88;6.30;;;26.40;99.90;;;;;;5012123;28;20203;-67
2023/05/14 12:14:15;;;;;;;6.75;6.22;;;26.00;99.90;;;;;;5012237;28;20574;-67
2023/05/14 12:16:42;;;;;;;8.32;6.55;;;25.60;99.90;;;;;;5012531;28;20230;-66
2023/05/14 12:19:10;;;;;;;8.40;7.40;;;25.10;99.90;;;;;;5011875;28;20180;-66
2023/05/14 12:21:37;;;;;;;11.98;8.95;;;24.90;99.90;;;;;;5012314;28;20168;-66
2023/05/14 12:24:03;;;;;;;6.50;6.00;;;25.20;99.90;;;;;;5012014;28;20644;-65
2023/05/14 12:26:32;;;;;;;6.75;6.15;;;25.50;99.90;;;;;;5011915;28;20206;-67
2023/05/14 12:29:02;;;;;;;6.63;4.95;;;25.80;99.90;;;;;;5012473;28;20168;-66
2023/05/14 12:31:35;;;;;;;5.70;4.80;;;26.00;99.90;;;;;;5011749;28;20208;-66
2023/05/14 12:34:02;;;;;;;5.43;4.90;;;26.30;99.90;;;;;;5012048;28;20194;-65